createdAt,value
2022-09-09T00:00:38.586Z,2.70
2022-09-09T00:01:40.025Z,2.83
2022-09-09T00:02:47.291Z,2.77
2022-09-09T00:03:58.096Z,3.07
2022-09-09T00:05:03.218Z,2.70
2022-09-09T00:06:10.107Z,3.00
2022-09-09T00:07:39.962Z,2.70
2022-09-09T00:08:50.213Z,3.03
2022-09-09T00:10:25.923Z,2.87
2022-09-09T00:11:41.218Z,2.77
2022-09-09T00:13:19.750Z,2.97
2022-09-09T00:14:55.182Z,2.80
2022-09-09T00:16:08.562Z,3.10
2022-09-09T00:17:19.464Z,2.77
2022-09-09T00:18:36.919Z,3.20
2022-09-09T00:19:57.780Z,3.23
2022-09-09T00:21:16.488Z,3.00
2022-09-09T00:22:24.444Z,2.57
2022-09-09T00:23:29.905Z,2.93
2022-09-09T00:24:44.653Z,3.23
2022-09-09T00:26:00.161Z,3.00
2022-09-09T00:27:33.261Z,3.20
2022-09-09T00:28:42.674Z,2.60
2022-09-09T00:29:55.346Z,2.70
2022-09-09T00:30:58.299Z,3.40
2022-09-09T00:32:11.134Z,3.10
2022-09-09T00:33:16.292Z,3.07
2022-09-09T00:34:24.504Z,2.80
2022-09-09T00:35:37.059Z,2.60
2022-09-09T00:36:39.585Z,2.90
2022-09-09T00:37:42.185Z,2.87
2022-09-09T00:38:50.144Z,2.83
2022-09-09T00:39:55.808Z,2.83
2022-09-09T00:41:15.562Z,2.90
2022-09-09T00:42:25.729Z,2.87
2022-09-09T00:43:31.478Z,3.10
2022-09-09T00:44:36.387Z,2.37
2022-09-09T00:46:17.256Z,2.80
2022-09-09T00:47:58.083Z,2.83
2022-09-09T00:49:24.942Z,2.90
2022-09-09T00:50:57.350Z,2.83
2022-09-09T00:52:20.115Z,2.63
2022-09-09T00:54:00.538Z,2.73
2022-09-09T00:55:23.075Z,2.70
2022-09-09T00:56:34.091Z,2.90
2022-09-09T00:57:37.696Z,3.00
2022-09-09T00:58:39.265Z,3.03
2022-09-09T01:00:13.022Z,2.90
2022-09-09T01:01:15.932Z,2.77
2022-09-09T01:02:50.199Z,2.67
2022-09-09T01:03:56.058Z,2.40
2022-09-09T01:05:20.622Z,2.93
2022-09-09T01:06:32.685Z,2.80
2022-09-09T01:07:35.309Z,3.47
2022-09-09T01:08:36.762Z,2.70
2022-09-09T01:09:47.650Z,2.30
2022-09-09T01:10:54.944Z,2.93
2022-09-09T01:12:18.558Z,2.97
2022-09-09T01:13:34.749Z,2.90
2022-09-09T01:14:53.139Z,2.80
2022-09-09T01:15:59.732Z,2.83
2022-09-09T01:17:28.966Z,3.17
2022-09-09T01:18:41.846Z,2.97
2022-09-09T01:19:50.449Z,2.50
2022-09-09T01:21:02.829Z,2.73
2022-09-09T01:22:16.133Z,2.70
2022-09-09T01:23:43.238Z,3.00
2022-09-09T01:25:26.844Z,3.27
2022-09-09T01:26:45.601Z,2.97
2022-09-09T01:28:04.460Z,2.57
2022-09-09T01:29:11.093Z,3.60
2022-09-09T01:30:18.355Z,3.03
2022-09-09T01:31:25.208Z,2.80
2022-09-09T01:32:54.800Z,3.03
2022-09-09T01:33:56.559Z,2.90
2022-09-09T01:34:58.656Z,2.60
2022-09-09T01:36:11.272Z,3.17
2022-09-09T01:37:20.427Z,2.70
2022-09-09T01:38:23.448Z,2.80
2022-09-09T01:39:27.058Z,2.87
2022-09-09T01:40:36.902Z,3.10
2022-09-09T01:41:39.068Z,2.97
2022-09-09T01:42:44.625Z,3.40
2022-09-09T01:43:46.273Z,3.33
2022-09-09T01:44:48.078Z,3.10
2022-09-09T01:45:53.508Z,3.00
2022-09-09T01:46:55.150Z,2.90
2022-09-09T01:47:57.552Z,3.47
2022-09-09T01:49:19.187Z,3.20
2022-09-09T01:50:22.155Z,3.80
2022-09-09T01:51:24.654Z,3.20
2022-09-09T01:52:26.523Z,3.57
2022-09-09T01:53:28.331Z,3.50
2022-09-09T01:54:34.041Z,3.47
2022-09-09T01:55:42.107Z,4.60
2022-09-09T01:57:04.886Z,3.20
2022-09-09T01:58:43.481Z,3.77
2022-09-09T01:59:53.720Z,3.90
2022-09-09T02:01:09.726Z,3.73
2022-09-09T02:02:18.334Z,3.50
2022-09-09T02:03:29.744Z,3.73
2022-09-09T02:04:55.566Z,3.93
2022-09-09T02:06:12.097Z,3.87
2022-09-09T02:07:48.970Z,3.47
2022-09-09T02:09:11.565Z,3.07
2022-09-09T02:10:37.874Z,3.90
2022-09-09T02:11:50.611Z,3.50
2022-09-09T02:13:18.407Z,3.30
2022-09-09T02:14:27.205Z,3.70
2022-09-09T02:15:33.959Z,4.27
2022-09-09T02:17:04.541Z,3.63
2022-09-09T02:18:30.002Z,3.73
2022-09-09T02:19:37.725Z,3.77
2022-09-09T02:21:04.299Z,3.60
2022-09-09T02:22:06.684Z,3.37
2022-09-09T02:23:11.018Z,3.80
2022-09-09T02:24:16.414Z,3.20
2022-09-09T02:25:27.829Z,3.63
2022-09-09T02:26:40.121Z,3.90
2022-09-09T02:27:45.857Z,4.03
2022-09-09T02:28:50.072Z,3.43
2022-09-09T02:29:54.406Z,3.40
2022-09-09T02:31:07.765Z,2.93
2022-09-09T02:32:16.619Z,3.13
2022-09-09T02:33:18.415Z,3.87
2022-09-09T02:34:26.247Z,3.50
2022-09-09T02:35:31.594Z,2.80
2022-09-09T02:36:35.168Z,3.67
2022-09-09T02:37:39.507Z,3.07
2022-09-09T02:38:54.125Z,3.10
2022-09-09T02:40:00.051Z,3.50
2022-09-09T02:41:03.245Z,3.43
2022-09-09T02:42:06.354Z,3.23
2022-09-09T02:43:08.479Z,3.30
2022-09-09T02:44:16.763Z,3.30
2022-09-09T02:45:21.740Z,3.57
2022-09-09T02:46:36.282Z,3.30
2022-09-09T02:47:53.210Z,3.07
2022-09-09T02:48:57.039Z,3.23
2022-09-09T02:50:21.313Z,3.47
2022-09-09T02:51:32.483Z,3.93
2022-09-09T02:52:59.760Z,3.13
2022-09-09T02:54:14.376Z,3.43
2022-09-09T02:55:27.187Z,3.30
2022-09-09T02:56:35.735Z,3.50
2022-09-09T02:57:38.989Z,3.50
2022-09-09T02:58:41.463Z,3.40
2022-09-09T02:59:45.002Z,3.33
2022-09-09T03:00:49.257Z,3.50
2022-09-09T03:01:50.676Z,3.33
2022-09-09T03:02:52.383Z,3.07
2022-09-09T03:03:55.977Z,3.37
2022-09-09T03:04:59.030Z,3.03
2022-09-09T03:06:00.603Z,3.70
2022-09-09T03:07:04.511Z,3.77
2022-09-09T03:08:07.091Z,3.50
2022-09-09T03:09:12.236Z,2.97
2022-09-09T03:10:14.421Z,3.23
2022-09-09T03:11:18.157Z,3.33
2022-09-09T03:12:19.701Z,3.10
2022-09-09T03:13:21.414Z,2.70
2022-09-09T03:14:26.069Z,2.97
2022-09-09T03:15:32.408Z,3.30
2022-09-09T03:16:35.419Z,3.30
2022-09-09T03:17:37.536Z,2.90
2022-09-09T03:18:39.063Z,3.50
2022-09-09T03:19:41.117Z,3.30
2022-09-09T03:20:44.737Z,3.47
2022-09-09T03:21:47.350Z,2.87
2022-09-09T03:22:48.913Z,3.37
2022-09-09T03:23:50.603Z,3.23
2022-09-09T03:24:52.907Z,3.40
2022-09-09T03:25:58.065Z,3.03
2022-09-09T03:27:06.484Z,3.07
2022-09-09T03:28:10.212Z,3.40
2022-09-09T03:29:13.468Z,3.20
2022-09-09T03:30:16.545Z,3.03
2022-09-09T03:31:20.303Z,3.10
2022-09-09T03:32:23.435Z,3.10
2022-09-09T03:33:24.941Z,3.10
2022-09-09T03:34:26.546Z,3.60
2022-09-09T03:35:28.086Z,3.43
2022-09-09T03:36:30.853Z,2.80
2022-09-09T03:37:32.741Z,3.30
2022-09-09T03:38:34.568Z,3.40
2022-09-09T03:39:36.107Z,3.17
2022-09-09T03:40:37.829Z,3.37
2022-09-09T03:41:39.467Z,3.30
2022-09-09T03:42:41.441Z,2.90
2022-09-09T03:43:42.878Z,3.30
2022-09-09T03:44:44.346Z,3.23
2022-09-09T03:45:49.288Z,4.00
2022-09-09T03:46:51.265Z,3.17
2022-09-09T03:47:52.913Z,3.30
2022-09-09T03:48:54.446Z,3.50
2022-09-09T03:49:56.473Z,3.47
2022-09-09T03:51:01.593Z,3.83
2022-09-09T03:52:05.504Z,3.33
2022-09-09T03:53:07.030Z,3.10
2022-09-09T03:54:11.145Z,3.43
2022-09-09T03:55:12.839Z,3.20
2022-09-09T03:56:15.369Z,3.13
2022-09-09T03:57:17.792Z,3.40
2022-09-09T03:58:19.869Z,2.90
2022-09-09T03:59:22.255Z,3.17
2022-09-09T04:00:23.716Z,3.07
2022-09-09T04:01:28.318Z,3.10
2022-09-09T04:02:29.858Z,3.07
2022-09-09T04:03:32.112Z,3.43
2022-09-09T04:04:33.835Z,3.40
2022-09-09T04:05:35.635Z,3.27
2022-09-09T04:06:37.050Z,3.17
2022-09-09T04:07:38.712Z,3.27
2022-09-09T04:08:41.090Z,3.37
2022-09-09T04:09:43.115Z,3.30
2022-09-09T04:10:47.687Z,3.33
2022-09-09T04:11:50.398Z,3.33
2022-09-09T04:12:51.866Z,3.57
2022-09-09T04:13:53.550Z,3.20
2022-09-09T04:14:54.959Z,3.50
2022-09-09T04:15:59.046Z,3.30
2022-09-09T04:17:00.782Z,3.40
2022-09-09T04:18:02.401Z,3.40
2022-09-09T04:19:08.970Z,3.00
2022-09-09T04:20:12.317Z,3.20
2022-09-09T04:21:13.938Z,3.20
2022-09-09T04:22:16.955Z,2.87
2022-09-09T04:23:21.935Z,3.43
2022-09-09T04:24:24.581Z,3.30
2022-09-09T04:25:26.191Z,3.67
2022-09-09T04:26:28.004Z,3.60
2022-09-09T04:27:30.066Z,3.77
2022-09-09T04:28:35.294Z,3.60
2022-09-09T04:29:37.296Z,3.30
2022-09-09T04:30:40.745Z,4.30
2022-09-09T04:31:43.138Z,3.50
2022-09-09T04:32:45.158Z,3.67
2022-09-09T04:33:47.599Z,3.63
2022-09-09T04:34:49.229Z,3.17
2022-09-09T04:35:51.630Z,3.40
2022-09-09T04:36:54.049Z,3.23
2022-09-09T04:37:56.008Z,3.50
2022-09-09T04:38:57.758Z,3.57
2022-09-09T04:40:03.006Z,3.00
2022-09-09T04:41:06.309Z,3.40
2022-09-09T04:42:09.356Z,3.20
2022-09-09T04:43:14.514Z,3.10
2022-09-09T04:44:17.755Z,3.33
2022-09-09T04:45:19.482Z,3.50
2022-09-09T04:46:24.116Z,3.33
2022-09-09T04:47:26.254Z,3.70
2022-09-09T04:48:28.547Z,3.40
2022-09-09T04:49:32.555Z,3.73
2022-09-09T04:50:35.070Z,4.07
2022-09-09T04:51:36.695Z,3.60
2022-09-09T04:52:38.771Z,3.23
2022-09-09T04:53:41.352Z,3.43
2022-09-09T04:54:43.363Z,3.00
2022-09-09T04:55:44.822Z,3.03
2022-09-09T04:56:47.192Z,4.00
2022-09-09T04:57:49.228Z,3.13
2022-09-09T04:58:50.632Z,3.10
2022-09-09T04:59:52.729Z,3.60
2022-09-09T05:00:54.318Z,3.10
2022-09-09T05:01:56.840Z,3.30
2022-09-09T05:02:58.345Z,3.37
2022-09-09T05:04:00.154Z,3.13
2022-09-09T05:05:02.885Z,3.60
2022-09-09T05:06:09.439Z,3.40
2022-09-09T05:07:11.859Z,3.40
2022-09-09T05:08:14.754Z,3.33
2022-09-09T05:09:16.321Z,3.17
2022-09-09T05:10:19.317Z,3.50
2022-09-09T05:11:24.311Z,3.27
2022-09-09T05:12:28.608Z,3.00
2022-09-09T05:13:32.365Z,2.73
2022-09-09T05:14:33.836Z,2.97
2022-09-09T05:15:37.169Z,2.87
2022-09-09T05:16:38.994Z,3.33
2022-09-09T05:17:41.476Z,3.63
2022-09-09T05:18:47.071Z,3.17
2022-09-09T05:19:49.113Z,3.23
2022-09-09T05:20:52.037Z,2.90
2022-09-09T05:21:54.257Z,3.00
2022-09-09T05:23:06.621Z,3.23
2022-09-09T05:24:08.508Z,3.50
2022-09-09T05:25:10.342Z,2.50
2022-09-09T05:26:17.719Z,3.00
2022-09-09T05:27:21.878Z,3.13
2022-09-09T05:28:27.029Z,3.17
2022-09-09T05:29:29.374Z,3.00
2022-09-09T05:30:32.482Z,2.87
2022-09-09T05:31:36.373Z,3.77
2022-09-09T05:32:44.487Z,3.33
2022-09-09T05:33:49.175Z,3.47
2022-09-09T05:34:51.716Z,2.83
2022-09-09T05:36:01.046Z,3.30
2022-09-09T05:37:02.633Z,3.23
2022-09-09T05:38:04.607Z,3.40
2022-09-09T05:39:06.113Z,3.70
2022-09-09T05:40:09.379Z,3.30
2022-09-09T05:41:12.334Z,3.10
2022-09-09T05:42:14.041Z,3.30
2022-09-09T05:43:16.189Z,3.13
2022-09-09T05:44:17.745Z,3.57
2022-09-09T05:45:19.253Z,3.80
2022-09-09T05:46:22.981Z,3.23
2022-09-09T05:47:28.663Z,3.13
2022-09-09T05:48:32.074Z,3.27
2022-09-09T05:49:33.913Z,3.50
2022-09-09T05:50:35.394Z,3.40
2022-09-09T05:51:37.506Z,3.43
2022-09-09T05:52:45.996Z,3.90
2022-09-09T05:53:47.820Z,3.40
2022-09-09T05:54:49.706Z,3.40
2022-09-09T05:55:51.503Z,3.00
2022-09-09T05:56:54.690Z,3.30
2022-09-09T05:57:57.069Z,2.90
2022-09-09T05:59:01.139Z,3.20
2022-09-09T06:00:04.094Z,3.30
2022-09-09T06:01:20.220Z,3.17
2022-09-09T06:02:22.425Z,3.37
2022-09-09T06:03:24.882Z,3.10
2022-09-09T06:04:27.228Z,3.17
2022-09-09T06:05:29.216Z,3.40
2022-09-09T06:06:38.044Z,3.40
2022-09-09T06:07:45.714Z,3.50
2022-09-09T06:08:48.428Z,3.10
2022-09-09T06:09:52.600Z,3.30
2022-09-09T06:10:54.578Z,3.03
2022-09-09T06:11:56.294Z,3.50
2022-09-09T06:12:58.537Z,3.30
2022-09-09T06:14:01.153Z,3.10
2022-09-09T06:15:05.155Z,3.43
2022-09-09T06:16:13.150Z,3.50
2022-09-09T06:17:15.626Z,3.20
2022-09-09T06:18:19.203Z,3.37
2022-09-09T06:19:21.555Z,3.40
2022-09-09T06:20:23.838Z,3.73
2022-09-09T06:21:34.047Z,3.00
2022-09-09T06:22:36.753Z,3.40
2022-09-09T06:23:41.611Z,3.33
2022-09-09T06:24:43.251Z,3.17
2022-09-09T06:25:44.751Z,3.23
2022-09-09T06:26:46.542Z,3.00
2022-09-09T06:27:53.592Z,3.03
2022-09-09T06:28:56.501Z,2.93
2022-09-09T06:29:57.967Z,3.10
2022-09-09T06:31:05.154Z,3.27
2022-09-09T06:32:07.068Z,3.80
2022-09-09T06:33:08.988Z,3.27
2022-09-09T06:34:10.848Z,3.20
2022-09-09T06:35:15.901Z,3.00
2022-09-09T06:36:22.575Z,3.10
2022-09-09T06:37:25.077Z,3.17
2022-09-09T06:38:26.669Z,3.00
2022-09-09T06:39:29.435Z,3.50
2022-09-09T06:40:31.489Z,3.00
2022-09-09T06:41:34.181Z,3.60
2022-09-09T06:42:38.397Z,2.90
2022-09-09T06:43:56.761Z,2.70
2022-09-09T06:45:06.281Z,2.97
2022-09-09T06:46:22.787Z,3.63
2022-09-09T06:47:25.698Z,2.73
2022-09-09T06:48:29.235Z,3.20
2022-09-09T06:49:31.169Z,2.80
2022-09-09T06:50:32.630Z,2.83
2022-09-09T06:51:43.535Z,3.07
2022-09-09T06:52:48.714Z,3.20
2022-09-09T06:53:55.445Z,3.20
2022-09-09T06:54:59.917Z,3.07
2022-09-09T06:56:24.091Z,3.30
2022-09-09T06:57:36.972Z,3.20
2022-09-09T06:58:49.774Z,2.97
2022-09-09T06:59:57.372Z,3.00
2022-09-09T07:01:07.066Z,2.73
2022-09-09T07:02:10.123Z,2.90
2022-09-09T07:03:11.874Z,3.30
2022-09-09T07:04:14.661Z,3.10
2022-09-09T07:05:18.814Z,4.10
2022-09-09T07:06:24.822Z,2.83
2022-09-09T07:07:28.263Z,3.50
2022-09-09T07:08:29.859Z,2.80
2022-09-09T07:09:32.350Z,3.10
2022-09-09T07:10:35.649Z,3.47
2022-09-09T07:11:43.005Z,3.43
2022-09-09T07:12:45.273Z,3.33
2022-09-09T07:13:49.275Z,3.80
2022-09-09T07:14:50.783Z,2.90
2022-09-09T07:15:53.549Z,2.67
2022-09-09T07:16:59.362Z,3.17
2022-09-09T07:18:04.510Z,3.60
2022-09-09T07:19:06.678Z,3.50
2022-09-09T07:20:09.060Z,3.33
2022-09-09T07:21:13.193Z,3.40
2022-09-09T07:22:15.594Z,3.27
2022-09-09T07:23:18.717Z,3.17
2022-09-09T07:24:20.383Z,3.47
2022-09-09T07:25:22.959Z,3.77
2022-09-09T07:26:27.586Z,3.13
2022-09-09T07:27:29.402Z,3.53
2022-09-09T07:28:32.073Z,3.50
2022-09-09T07:29:34.121Z,3.50
2022-09-09T07:30:36.058Z,3.20
2022-09-09T07:31:40.841Z,3.30
2022-09-09T07:32:46.178Z,3.37
2022-09-09T07:33:49.310Z,3.20
2022-09-09T07:34:51.599Z,3.87
2022-09-09T07:35:53.806Z,3.57
2022-09-09T07:36:55.241Z,3.40
2022-09-09T07:37:57.139Z,3.30
2022-09-09T07:39:07.355Z,3.90
2022-09-09T07:40:09.797Z,3.13
2022-09-09T07:41:14.719Z,3.53
2022-09-09T07:42:16.914Z,3.50
2022-09-09T07:43:19.662Z,3.30
2022-09-09T07:44:28.312Z,3.20
2022-09-09T07:45:41.635Z,2.80
2022-09-09T07:46:43.714Z,3.87
2022-09-09T07:47:46.045Z,3.10
2022-09-09T07:48:53.227Z,3.00
2022-09-09T07:49:57.438Z,3.33
2022-09-09T07:51:17.852Z,3.40
2022-09-09T07:52:21.833Z,3.30
2022-09-09T07:53:27.364Z,3.13
2022-09-09T07:54:29.428Z,2.70
2022-09-09T07:55:31.282Z,3.23
2022-09-09T07:56:33.887Z,2.93
2022-09-09T07:57:36.316Z,3.60
2022-09-09T07:58:39.388Z,2.53
2022-09-09T07:59:41.322Z,2.80
2022-09-09T08:00:44.629Z,3.00
2022-09-09T08:01:54.726Z,2.90
2022-09-09T08:02:58.746Z,2.80
2022-09-09T08:04:05.319Z,2.93
2022-09-09T08:05:07.950Z,2.87
2022-09-09T08:06:10.114Z,3.20
2022-09-09T08:07:12.434Z,2.97
2022-09-09T08:08:20.688Z,2.87
2022-09-09T08:09:25.994Z,3.07
2022-09-09T08:10:27.523Z,3.30
2022-09-09T08:11:34.254Z,3.50
2022-09-09T08:12:40.297Z,3.40
2022-09-09T08:13:49.796Z,3.30
2022-09-09T08:14:55.767Z,3.00
2022-09-09T08:16:37.403Z,3.07
2022-09-09T08:17:39.115Z,2.97
2022-09-09T08:18:43.528Z,2.90
2022-09-09T08:19:45.605Z,3.73
2022-09-09T08:20:54.422Z,3.57
2022-09-09T08:21:55.902Z,3.50
2022-09-09T08:22:57.335Z,3.23
2022-09-09T08:24:01.431Z,3.50
2022-09-09T08:25:07.360Z,3.43
2022-09-09T08:26:31.724Z,3.57
2022-09-09T08:27:33.795Z,3.00
2022-09-09T08:28:35.340Z,3.13
2022-09-09T08:29:39.158Z,3.10
2022-09-09T08:30:41.126Z,3.10
2022-09-09T08:31:50.901Z,3.30
2022-09-09T08:32:53.867Z,3.20
2022-09-09T08:33:57.428Z,4.10
2022-09-09T08:35:01.225Z,3.50
2022-09-09T08:36:04.000Z,3.03
2022-09-09T08:37:05.904Z,3.27
2022-09-09T08:38:12.415Z,3.17
2022-09-09T08:39:16.860Z,3.10
2022-09-09T08:40:33.787Z,3.47
2022-09-09T08:42:03.107Z,3.70
2022-09-09T08:43:09.386Z,3.70
2022-09-09T08:44:28.201Z,3.40
2022-09-09T08:45:43.614Z,3.47
2022-09-09T08:46:57.746Z,3.00
2022-09-09T08:48:39.246Z,3.60
2022-09-09T08:50:15.311Z,3.03
2022-09-09T08:51:18.810Z,3.80
2022-09-09T08:52:23.969Z,3.10
2022-09-09T08:53:33.126Z,3.50
2022-09-09T08:54:51.600Z,3.40
2022-09-09T08:55:59.787Z,3.50
2022-09-09T08:57:28.968Z,2.70
2022-09-09T08:58:33.456Z,3.87
2022-09-09T08:59:38.814Z,3.30
2022-09-09T09:01:04.155Z,3.50
2022-09-09T09:02:16.940Z,3.30
2022-09-09T09:03:55.253Z,3.43
2022-09-09T09:05:11.045Z,3.23
2022-09-09T09:06:25.345Z,3.60
2022-09-09T09:08:05.126Z,3.30
2022-09-09T09:09:33.248Z,3.37
2022-09-09T09:10:51.604Z,2.97
2022-09-09T09:12:01.741Z,3.27
2022-09-09T09:13:35.146Z,3.43
2022-09-09T09:14:39.342Z,3.23
2022-09-09T09:15:47.520Z,2.80
2022-09-09T09:16:58.508Z,3.10
2022-09-09T09:18:02.157Z,3.13
2022-09-09T09:19:03.946Z,3.20
2022-09-09T09:20:14.494Z,3.10
2022-09-09T09:21:22.546Z,2.80
2022-09-09T09:22:35.142Z,3.03
2022-09-09T09:24:02.547Z,3.30
2022-09-09T09:25:20.774Z,2.78
2022-09-09T09:26:28.119Z,3.13
2022-09-09T09:27:37.454Z,2.72
2022-09-09T09:28:43.781Z,3.37
2022-09-09T09:30:20.354Z,3.03
2022-09-09T09:31:16.165Z,3.58
2022-09-09T09:32:23.740Z,2.73
2022-09-09T09:33:47.811Z,2.97
2022-09-09T09:34:52.705Z,3.00
2022-09-09T09:35:55.295Z,3.20
2022-09-09T09:37:06.334Z,3.23
2022-09-09T09:41:04.232Z,3.65
2022-09-09T09:42:24.793Z,3.57
2022-09-09T09:43:30.972Z,3.95
2022-09-09T09:44:38.060Z,3.70
2022-09-09T09:46:06.997Z,3.20
2022-09-09T09:47:09.988Z,3.07
2022-09-09T09:48:14.618Z,3.07
2022-09-09T09:49:16.937Z,3.10
2022-09-09T09:50:21.408Z,3.00
2022-09-09T09:51:26.728Z,3.37
2022-09-09T09:52:30.890Z,3.07
2022-09-09T09:53:37.013Z,2.87
2022-09-09T09:54:43.000Z,3.67
2022-09-09T09:55:55.569Z,3.50
2022-09-09T09:57:12.589Z,3.47
2022-09-09T09:58:18.672Z,3.43
2022-09-09T09:59:38.781Z,3.40
2022-09-09T10:00:53.098Z,3.00
2022-09-09T10:02:14.374Z,3.20
2022-09-09T10:03:33.569Z,2.80
2022-09-09T10:04:36.513Z,3.37
2022-09-09T10:05:45.719Z,3.07
2022-09-09T10:06:47.763Z,3.20
2022-09-09T10:08:02.345Z,3.20
2022-09-09T10:09:08.694Z,3.30
2022-09-09T10:10:20.927Z,3.40
2022-09-09T10:11:36.619Z,3.40
2022-09-09T10:13:10.169Z,3.30
2022-09-09T10:14:34.561Z,3.28
2022-09-09T10:15:42.175Z,2.80
2022-09-09T10:17:34.672Z,2.70
2022-09-09T10:18:53.984Z,3.08
2022-09-09T10:20:34.539Z,3.15
2022-09-09T10:21:45.268Z,2.80
2022-09-09T10:22:53.102Z,3.05
2022-09-09T10:24:13.409Z,2.90
2022-09-09T10:25:24.639Z,2.90
2022-09-09T10:27:04.011Z,3.17
2022-09-09T10:28:34.826Z,3.20
2022-09-09T10:29:46.187Z,3.08
2022-09-09T10:31:09.877Z,3.28
2022-09-09T10:32:52.169Z,3.72
2022-09-09T10:34:18.146Z,3.17
2022-09-09T10:35:25.780Z,2.78
2022-09-09T10:36:27.566Z,3.33
2022-09-09T10:37:52.921Z,3.25
2022-09-09T10:39:19.982Z,3.88
2022-09-09T10:40:59.303Z,4.38
2022-09-09T10:42:10.032Z,5.03
2022-09-09T10:43:37.573Z,4.97
2022-09-09T10:44:54.443Z,5.10
2022-09-09T10:46:37.665Z,6.53
2022-09-09T10:48:04.938Z,8.03
2022-09-09T10:49:22.026Z,7.60
2022-09-09T10:51:03.859Z,7.60
2022-09-09T10:52:17.186Z,6.37
2022-09-09T10:53:40.515Z,5.67
2022-09-09T10:54:54.778Z,5.47
2022-09-09T10:56:12.190Z,4.90
2022-09-09T10:57:29.910Z,4.90
2022-09-09T10:58:55.212Z,5.20
2022-09-09T11:00:01.006Z,4.97
2022-09-09T11:01:12.001Z,4.50
2022-09-09T11:02:20.386Z,4.63
2022-09-09T11:03:34.290Z,4.10
2022-09-09T11:04:49.187Z,4.20
2022-09-09T11:05:54.617Z,4.13
2022-09-09T11:06:57.163Z,4.20
2022-09-09T11:08:16.639Z,3.93
2022-09-09T11:09:23.100Z,4.20
2022-09-09T11:10:41.305Z,3.50
2022-09-09T11:11:56.401Z,3.80
2022-09-09T11:13:05.060Z,4.20
2022-09-09T11:14:21.446Z,3.60
2022-09-09T11:15:35.938Z,3.97
2022-09-09T11:16:51.725Z,4.23
2022-09-09T11:17:59.590Z,3.60
2022-09-09T11:19:36.331Z,4.03
2022-09-09T11:20:38.646Z,4.40
2022-09-09T11:21:48.649Z,3.23
2022-09-09T11:23:01.408Z,3.57
2022-09-09T11:24:12.859Z,3.00
2022-09-09T11:25:24.659Z,3.77
2022-09-09T11:26:39.101Z,3.30
2022-09-09T11:27:52.768Z,3.50
2022-09-09T11:29:12.630Z,3.30
2022-09-09T11:30:51.619Z,3.37
2022-09-09T11:32:19.179Z,5.30
2022-09-09T11:33:58.698Z,3.50
2022-09-09T11:35:28.233Z,3.20
2022-09-09T11:37:05.940Z,2.87
2022-09-09T11:38:26.773Z,3.43
2022-09-09T11:39:31.394Z,3.37
2022-09-09T11:40:34.634Z,3.07
2022-09-09T11:41:38.389Z,3.47
2022-09-09T11:42:40.223Z,4.50
2022-09-09T11:43:45.089Z,3.27
2022-09-09T11:44:47.088Z,3.20
2022-09-09T11:45:58.726Z,2.93
2022-09-09T11:47:02.468Z,2.97
2022-09-09T11:48:07.144Z,2.90
2022-09-09T11:49:26.621Z,2.80
2022-09-09T11:50:37.456Z,2.83
2022-09-09T11:51:39.433Z,3.93
2022-09-09T11:52:46.818Z,3.37
2022-09-09T11:53:54.764Z,3.23
2022-09-09T11:54:57.468Z,2.70
2022-09-09T11:56:05.692Z,3.00
2022-09-09T11:57:26.881Z,2.83
2022-09-09T11:58:33.760Z,3.00
2022-09-09T11:59:36.650Z,3.20
2022-09-09T12:00:46.517Z,2.87
2022-09-09T12:01:56.693Z,3.10
2022-09-09T12:02:58.184Z,3.10
2022-09-09T12:04:29.883Z,2.83
2022-09-09T12:05:43.506Z,3.30
2022-09-09T12:07:10.488Z,3.10
2022-09-09T12:08:18.464Z,2.83
2022-09-09T12:09:38.425Z,2.80
2022-09-09T12:10:41.357Z,3.23
2022-09-09T12:11:43.090Z,2.60
2022-09-09T12:12:44.529Z,2.97
2022-09-09T12:13:54.620Z,2.80
2022-09-09T12:15:00.362Z,3.50
2022-09-09T12:16:06.191Z,3.47
2022-09-09T12:17:14.347Z,3.20
2022-09-09T12:18:38.063Z,3.00
2022-09-09T12:19:39.610Z,3.00
2022-09-09T12:20:56.081Z,3.00
2022-09-09T12:22:16.710Z,2.80
2022-09-09T12:23:45.494Z,2.73
2022-09-09T12:25:25.034Z,2.97
2022-09-09T12:26:38.809Z,2.88
2022-09-09T12:27:58.371Z,3.60
2022-09-09T12:29:07.735Z,3.20
2022-09-09T12:30:12.993Z,3.10
2022-09-09T12:31:25.325Z,2.97
2022-09-09T12:32:29.946Z,3.10
2022-09-09T12:33:46.137Z,2.47
2022-09-09T12:35:10.547Z,3.00
2022-09-09T12:36:30.332Z,2.80
2022-09-09T12:37:42.384Z,3.10
2022-09-09T12:38:45.277Z,2.70
2022-09-09T12:39:52.446Z,2.60
2022-09-09T12:40:58.283Z,2.80
2022-09-09T12:41:59.891Z,2.83
2022-09-09T12:43:02.646Z,2.95
2022-09-09T12:44:10.407Z,2.70
2022-09-09T12:45:26.214Z,2.67
2022-09-09T12:46:43.581Z,2.60
2022-09-09T12:47:53.309Z,2.95
2022-09-09T12:48:55.460Z,3.47
2022-09-09T12:49:57.495Z,2.70
2022-09-09T12:51:00.446Z,3.10
2022-09-09T12:52:11.269Z,2.80
2022-09-09T12:53:36.118Z,2.70
2022-09-09T12:54:38.700Z,3.30
2022-09-09T12:55:40.626Z,2.53
2022-09-09T12:56:47.911Z,3.33
2022-09-09T12:57:51.343Z,3.17
2022-09-09T12:58:54.907Z,3.05
2022-09-09T13:00:09.916Z,2.85
2022-09-09T13:01:25.038Z,2.75
2022-09-09T13:02:28.911Z,2.77
2022-09-09T13:03:30.433Z,3.13
2022-09-09T13:04:32.224Z,2.77
2022-09-09T13:05:38.117Z,2.87
2022-09-09T13:06:39.754Z,2.80
2022-09-09T13:07:41.174Z,2.67
2022-09-09T13:08:43.206Z,2.70
2022-09-09T13:09:49.748Z,2.73
2022-09-09T13:11:02.995Z,2.50
2022-09-09T13:12:08.193Z,2.80
2022-09-09T13:13:21.247Z,2.70
2022-09-09T13:14:33.464Z,3.17
2022-09-09T13:15:34.969Z,2.60
2022-09-09T13:16:42.550Z,2.70
2022-09-09T13:17:52.411Z,2.87
2022-09-09T13:18:54.132Z,2.33
2022-09-09T13:19:57.130Z,2.50
2022-09-09T13:20:59.135Z,2.83
2022-09-09T13:22:00.854Z,2.40
2022-09-09T13:23:03.225Z,2.50
2022-09-09T13:24:25.224Z,2.70
2022-09-09T13:25:29.777Z,3.53
2022-09-09T13:26:31.330Z,2.57
2022-09-09T13:27:32.725Z,2.80
2022-09-09T13:28:36.062Z,2.60
2022-09-09T13:29:38.201Z,2.67
2022-09-09T13:30:42.301Z,2.50
2022-09-09T13:31:43.740Z,2.47
2022-09-09T13:32:45.156Z,2.70
2022-09-09T13:33:46.933Z,2.17
2022-09-09T13:35:23.568Z,2.43
2022-09-09T13:36:33.075Z,2.70
2022-09-09T13:37:37.393Z,2.57
2022-09-09T13:39:03.725Z,2.47
2022-09-09T13:40:18.712Z,2.90
2022-09-09T13:41:25.695Z,2.40
2022-09-09T13:42:33.518Z,2.70
2022-09-09T13:43:44.961Z,2.70
2022-09-09T13:44:47.749Z,2.40
2022-09-09T13:45:57.459Z,2.60
2022-09-09T13:47:01.760Z,2.23
2022-09-09T13:48:11.298Z,2.40
2022-09-09T13:49:12.793Z,2.13
2022-09-09T13:50:25.675Z,2.30
2022-09-09T13:51:38.286Z,2.53
2022-09-09T13:52:41.291Z,2.30
2022-09-09T13:53:42.728Z,2.60
2022-09-09T13:54:52.135Z,2.70
2022-09-09T13:55:54.997Z,2.60
2022-09-09T13:56:56.771Z,2.33
2022-09-09T13:58:03.574Z,2.30
2022-09-09T13:59:07.251Z,2.77
2022-09-09T14:00:13.283Z,2.57
2022-09-09T14:01:14.789Z,2.80
2022-09-09T14:02:17.875Z,2.73
2022-09-09T14:03:20.155Z,2.80
2022-09-09T14:04:22.083Z,2.97
2022-09-09T14:05:23.681Z,2.55
2022-09-09T14:06:25.412Z,2.45
2022-09-09T14:07:27.847Z,2.70
2022-09-09T14:08:37.912Z,2.30
2022-09-09T14:09:40.303Z,2.38
2022-09-09T14:10:41.793Z,2.60
2022-09-09T14:11:44.946Z,2.58
2022-09-09T14:12:47.871Z,2.70
2022-09-09T14:13:52.891Z,2.70
2022-09-09T14:14:54.342Z,2.78
2022-09-09T14:15:56.673Z,2.80
2022-09-09T14:16:58.191Z,2.95
2022-09-09T14:18:00.071Z,2.72
2022-09-09T14:19:02.048Z,2.60
2022-09-09T14:20:06.928Z,2.65
2022-09-09T14:21:09.823Z,2.37
2022-09-09T14:22:11.764Z,2.42
2022-09-09T14:23:13.754Z,2.38
2022-09-09T14:24:15.238Z,2.30
2022-09-09T14:25:16.777Z,2.70
2022-09-09T14:26:19.865Z,2.30
2022-09-09T14:27:21.488Z,2.33
2022-09-09T14:28:39.355Z,2.47
2022-09-09T14:29:45.261Z,2.10
2022-09-09T14:30:47.332Z,2.60
2022-09-09T14:31:48.864Z,2.80
2022-09-09T14:32:50.704Z,2.57
2022-09-09T14:33:52.604Z,2.90
2022-09-09T14:34:54.091Z,2.80
2022-09-09T14:36:00.075Z,2.63
2022-09-09T14:37:01.928Z,2.73
2022-09-09T14:38:04.951Z,2.60
2022-09-09T14:39:06.795Z,2.63
2022-09-09T14:40:08.583Z,2.80
2022-09-09T14:41:12.524Z,2.40
2022-09-09T14:42:14.908Z,2.83
2022-09-09T14:43:16.371Z,2.43
2022-09-09T14:44:18.016Z,2.17
2022-09-09T14:45:20.089Z,2.63
2022-09-09T14:46:21.883Z,2.57
2022-09-09T14:47:23.337Z,2.60
2022-09-09T14:48:25.011Z,2.63
2022-09-09T14:49:26.491Z,2.70
2022-09-09T14:50:27.978Z,2.20
2022-09-09T14:51:29.820Z,2.67
2022-09-09T14:52:31.933Z,2.63
2022-09-09T14:53:33.402Z,2.47
2022-09-09T14:54:35.477Z,2.28
2022-09-09T14:55:37.629Z,2.40
2022-09-09T14:56:39.040Z,2.67
2022-09-09T14:57:41.223Z,2.80
2022-09-09T14:58:42.895Z,2.35
2022-09-09T14:59:44.803Z,2.63
2022-09-09T15:00:46.907Z,2.55
2022-09-09T15:01:48.349Z,2.55
2022-09-09T15:02:53.877Z,2.30
2022-09-09T15:04:00.813Z,2.40
2022-09-09T15:05:02.455Z,2.50
2022-09-09T15:06:13.573Z,2.28
2022-09-09T15:07:15.082Z,2.75
2022-09-09T15:08:17.261Z,2.90
2022-09-09T15:09:19.080Z,2.47
2022-09-09T15:10:20.622Z,2.30
2022-09-09T15:11:23.020Z,2.55
2022-09-09T15:12:25.546Z,2.60
2022-09-09T15:13:27.316Z,2.45